sensor_id;sensor_type;location;lat;lon;timestamp;pressure;altitude;pressure_sealevel;temperature;humidity
46778;BME280;32536;47.128;8.746;2023-07-31T00:00:19;91920.59;;;19.18;51.06
46778;BME280;32536;47.128;8.746;2023-07-31T00:02:46;91919.22;;;19.13;51.40
46778;BME280;32536;47.128;8.746;2023-07-31T00:05:12;91908.19;;;19.08;51.52
46778;BME280;32536;47.128;8.746;2023-07-31T00:07:39;91907.47;;;19.07;51.17
46778;BME280;32536;47.128;8.746;2023-07-31T00:10:06;91905.94;;;19.06;51.07
46778;BME280;32536;47.128;8.746;2023-07-31T00:12:33;91899.47;;;19.03;51.24
46778;BME280;32536;47.128;8.746;2023-07-31T00:14:59;91904.28;;;18.99;51.61
46778;BME280;32536;47.128;8.746;2023-07-31T00:17:26;91902.63;;;18.93;51.36
46778;BME280;32536;47.128;8.746;2023-07-31T00:19:53;91904.25;;;18.90;51.43
46778;BME280;32536;47.128;8.746;2023-07-31T00:22:20;91894.00;;;18.85;51.35
46778;BME280;32536;47.128;8.746;2023-07-31T00:24:46;91897.59;;;18.72;51.71
46778;BME280;32536;47.128;8.746;2023-07-31T00:27:13;91890.78;;;18.68;51.52
46778;BME280;32536;47.128;8.746;2023-07-31T00:29:40;91885.06;;;18.66;51.81
46778;BME280;32536;47.128;8.746;2023-07-31T00:32:07;91883.25;;;18.63;51.56
46778;BME280;32536;47.128;8.746;2023-07-31T00:34:34;91884.47;;;18.62;51.50
46778;BME280;32536;47.128;8.746;2023-07-31T00:37:00;91892.75;;;18.58;51.53
46778;BME280;32536;47.128;8.746;2023-07-31T00:39:27;91892.59;;;18.62;51.37
46778;BME280;32536;47.128;8.746;2023-07-31T00:41:55;91895.59;;;18.64;51.61
46778;BME280;32536;47.128;8.746;2023-07-31T00:44:22;91890.78;;;18.68;51.14
46778;BME280;32536;47.128;8.746;2023-07-31T00:46:48;91890.03;;;18.67;51.30
46778;BME280;32536;47.128;8.746;2023-07-31T00:49:38;91893.19;;;18.66;51.96
46778;BME280;32536;47.128;8.746;2023-07-31T00:52:05;91891.09;;;18.70;51.22
46778;BME280;32536;47.128;8.746;2023-07-31T00:54:33;91886.88;;;18.69;51.38
46778;BME280;32536;47.128;8.746;2023-07-31T00:57:00;91899.81;;;18.65;51.39
46778;BME280;32536;47.128;8.746;2023-07-31T00:59:27;91898.03;;;18.62;51.29
46778;BME280;32536;47.128;8.746;2023-07-31T01:01:54;91901.16;;;18.60;51.26
46778;BME280;32536;47.128;8.746;2023-07-31T01:04:20;91893.78;;;18.61;51.20
46778;BME280;32536;47.128;8.746;2023-07-31T01:09:52;91891.22;;;18.57;52.63
46778;BME280;32536;47.128;8.746;2023-07-31T01:12:27;91890.44;;;18.56;51.38
46778;BME280;32536;47.128;8.746;2023-07-31T01:15:08;91885.47;;;18.46;52.28
46778;BME280;32536;47.128;8.746;2023-07-31T01:17:41;91887.41;;;18.45;51.41
46778;BME280;32536;47.128;8.746;2023-07-31T01:20:12;91882.75;;;18.46;51.63
46778;BME280;32536;47.128;8.746;2023-07-31T01:26:21;91871.75;;;18.40;52.53
46778;BME280;32536;47.128;8.746;2023-07-31T01:29:12;91881.06;;;18.39;52.11
46778;BME280;32536;47.128;8.746;2023-07-31T01:31:59;91871.59;;;18.44;51.43
46778;BME280;32536;47.128;8.746;2023-07-31T01:34:29;91864.53;;;18.46;51.32
46778;BME280;32536;47.128;8.746;2023-07-31T01:36:57;91858.22;;;18.49;51.63
46778;BME280;32536;47.128;8.746;2023-07-31T01:39:24;91848.09;;;18.50;51.68
46778;BME280;32536;47.128;8.746;2023-07-31T01:41:51;91848.25;;;18.46;52.01
46778;BME280;32536;47.128;8.746;2023-07-31T01:44:18;91853.06;;;18.42;51.75
46778;BME280;32536;47.128;8.746;2023-07-31T01:46:44;91846.72;;;18.45;51.79
46778;BME280;32536;47.128;8.746;2023-07-31T01:49:39;91857.13;;;18.47;52.98
46778;BME280;32536;47.128;8.746;2023-07-31T01:52:06;91851.56;;;18.50;51.70
46778;BME280;32536;47.128;8.746;2023-07-31T01:54:33;91853.06;;;18.51;51.94
46778;BME280;32536;47.128;8.746;2023-07-31T01:56:59;91858.06;;;18.53;51.67
46778;BME280;32536;47.128;8.746;2023-07-31T01:59:26;91853.84;;;18.52;52.05
46778;BME280;32536;47.128;8.746;2023-07-31T02:01:54;91853.97;;;18.48;51.92
46778;BME280;32536;47.128;8.746;2023-07-31T02:04:21;91839.38;;;18.46;52.14
46778;BME280;32536;47.128;8.746;2023-07-31T02:06:47;91839.78;;;18.44;51.96
46778;BME280;32536;47.128;8.746;2023-07-31T02:09:14;91828.81;;;18.48;51.98
46778;BME280;32536;47.128;8.746;2023-07-31T02:11:41;91820.22;;;18.49;51.99
46778;BME280;32536;47.128;8.746;2023-07-31T02:14:08;91825.34;;;18.56;52.05
46778;BME280;32536;47.128;8.746;2023-07-31T02:16:34;91822.78;;;18.62;51.92
46778;BME280;32536;47.128;8.746;2023-07-31T02:19:01;91814.19;;;18.64;51.76
46778;BME280;32536;47.128;8.746;2023-07-31T02:21:28;91802.44;;;18.67;51.84
46778;BME280;32536;47.128;8.746;2023-07-31T02:23:54;91811.34;;;18.67;51.78
46778;BME280;32536;47.128;8.746;2023-07-31T02:26:21;91808.19;;;18.69;51.55
46778;BME280;32536;47.128;8.746;2023-07-31T02:28:48;91803.97;;;18.68;51.82
46778;BME280;32536;47.128;8.746;2023-07-31T02:31:14;91795.06;;;18.67;51.85
46778;BME280;32536;47.128;8.746;2023-07-31T02:33:41;91794.31;;;18.67;51.77
46778;BME280;32536;47.128;8.746;2023-07-31T02:36:08;91794.00;;;18.65;51.61
46778;BME280;32536;47.128;8.746;2023-07-31T02:38:34;91795.50;;;18.66;51.72
46778;BME280;32536;47.128;8.746;2023-07-31T02:41:01;91788.56;;;18.65;51.78
46778;BME280;32536;47.128;8.746;2023-07-31T02:43:28;91794.47;;;18.63;51.88
46778;BME280;32536;47.128;8.746;2023-07-31T02:45:55;91787.66;;;18.59;51.69
46778;BME280;32536;47.128;8.746;2023-07-31T02:48:21;91793.56;;;18.57;51.67
46778;BME280;32536;47.128;8.746;2023-07-31T02:50:48;91793.09;;;18.59;51.68
46778;BME280;32536;47.128;8.746;2023-07-31T02:53:15;91798.22;;;18.56;51.73
46778;BME280;32536;47.128;8.746;2023-07-31T02:55:41;91794.91;;;18.52;51.97
46778;BME280;32536;47.128;8.746;2023-07-31T02:58:08;91801.09;;;18.53;51.68
46778;BME280;32536;47.128;8.746;2023-07-31T03:00:35;91799.88;;;18.54;51.65
46778;BME280;32536;47.128;8.746;2023-07-31T03:03:02;91805.16;;;18.58;51.41
46778;BME280;32536;47.128;8.746;2023-07-31T03:05:28;91808.78;;;18.64;51.43
46778;BME280;32536;47.128;8.746;2023-07-31T03:07:55;91798.09;;;18.69;51.54
46778;BME280;32536;47.128;8.746;2023-07-31T03:10:22;91797.94;;;18.73;51.80
46778;BME280;32536;47.128;8.746;2023-07-31T03:12:49;91798.53;;;18.77;51.71
46778;BME280;32536;47.128;8.746;2023-07-31T03:15:15;91797.94;;;18.82;52.06
46778;BME280;32536;47.128;8.746;2023-07-31T03:17:42;91792.78;;;18.84;51.95
46778;BME280;32536;47.128;8.746;2023-07-31T03:20:09;91793.25;;;18.83;52.16
46778;BME280;32536;47.128;8.746;2023-07-31T03:22:36;91787.38;;;18.84;52.22
46778;BME280;32536;47.128;8.746;2023-07-31T03:25:03;91797.66;;;18.90;52.30
46778;BME280;32536;47.128;8.746;2023-07-31T03:27:30;91797.66;;;18.90;52.39
46778;BME280;32536;47.128;8.746;2023-07-31T03:29:57;91796.75;;;18.93;52.28
46778;BME280;32536;47.128;8.746;2023-07-31T03:32:24;91803.69;;;18.94;52.34
46778;BME280;32536;47.128;8.746;2023-07-31T03:34:51;91801.72;;;18.94;52.10
46778;BME280;32536;47.128;8.746;2023-07-31T03:37:18;91793.56;;;18.94;52.21
46778;BME280;32536;47.128;8.746;2023-07-31T03:39:44;91796.59;;;18.96;52.08
46778;BME280;32536;47.128;8.746;2023-07-31T03:42:11;91797.34;;;18.97;51.84
46778;BME280;32536;47.128;8.746;2023-07-31T03:44:38;91803.53;;;18.97;52.01
46778;BME280;32536;47.128;8.746;2023-07-31T03:47:05;91802.19;;;18.93;51.96
46778;BME280;32536;47.128;8.746;2023-07-31T03:49:46;91813.50;;;18.91;52.28
46778;BME280;32536;47.128;8.746;2023-07-31T03:52:13;91806.25;;;18.97;51.76
46778;BME280;32536;47.128;8.746;2023-07-31T03:54:40;91807.31;;;19.00;51.78
46778;BME280;32536;47.128;8.746;2023-07-31T03:57:06;91809.13;;;19.03;51.59
46778;BME280;32536;47.128;8.746;2023-07-31T03:59:33;91819.53;;;19.04;51.69
46778;BME280;32536;47.128;8.746;2023-07-31T04:02:00;91816.03;;;19.04;51.56
46778;BME280;32536;47.128;8.746;2023-07-31T04:04:26;91811.84;;;19.03;51.63
46778;BME280;32536;47.128;8.746;2023-07-31T04:06:53;91818.00;;;19.03;51.71
46778;BME280;32536;47.128;8.746;2023-07-31T04:09:20;91819.22;;;19.02;51.60
46778;BME280;32536;47.128;8.746;2023-07-31T04:11:46;91822.38;;;19.01;51.72
46778;BME280;32536;47.128;8.746;2023-07-31T04:14:13;91826.59;;;18.93;52.02
46778;BME280;32536;47.128;8.746;2023-07-31T04:16:40;91830.22;;;18.90;51.89
46778;BME280;32536;47.128;8.746;2023-07-31T04:19:07;91822.22;;;18.86;52.13
46778;BME280;32536;47.128;8.746;2023-07-31T04:21:33;91827.34;;;18.84;52.11
46778;BME280;32536;47.128;8.746;2023-07-31T04:24:00;91832.00;;;18.83;52.03
46778;BME280;32536;47.128;8.746;2023-07-31T04:26:27;91836.09;;;18.79;52.40
46778;BME280;32536;47.128;8.746;2023-07-31T04:28:53;91830.66;;;18.79;52.04
46778;BME280;32536;47.128;8.746;2023-07-31T04:31:20;91831.41;;;18.79;52.17
46778;BME280;32536;47.128;8.746;2023-07-31T04:33:47;91829.47;;;18.80;52.23
46778;BME280;32536;47.128;8.746;2023-07-31T04:36:13;91823.84;;;18.83;52.12
46778;BME280;32536;47.128;8.746;2023-07-31T04:38:40;91818.75;;;18.85;52.05
46778;BME280;32536;47.128;8.746;2023-07-31T04:41:07;91818.59;;;18.89;52.13
46778;BME280;32536;47.128;8.746;2023-07-31T04:43:33;91821.94;;;18.93;52.11
46778;BME280;32536;47.128;8.746;2023-07-31T04:46:00;91821.78;;;18.97;52.19
46778;BME280;32536;47.128;8.746;2023-07-31T04:48:27;91821.19;;;19.02;52.11
46778;BME280;32536;47.128;8.746;2023-07-31T04:50:54;91824.50;;;19.06;52.32
46778;BME280;32536;47.128;8.746;2023-07-31T04:53:20;91830.06;;;19.12;52.37
46778;BME280;32536;47.128;8.746;2023-07-31T04:55:47;91824.19;;;19.13;52.28
46778;BME280;32536;47.128;8.746;2023-07-31T04:58:14;91827.94;;;19.16;52.35
46778;BME280;32536;47.128;8.746;2023-07-31T05:00:40;91832.91;;;19.17;52.13
46778;BME280;32536;47.128;8.746;2023-07-31T05:03:07;91825.09;;;19.19;52.16
46778;BME280;32536;47.128;8.746;2023-07-31T05:05:34;91832.34;;;19.23;52.04
46778;BME280;32536;47.128;8.746;2023-07-31T05:08:00;91821.75;;;19.25;52.08
46778;BME280;32536;47.128;8.746;2023-07-31T05:10:27;91821.91;;;19.21;52.14
46778;BME280;32536;47.128;8.746;2023-07-31T05:12:54;91829.31;;;19.20;52.00
46778;BME280;32536;47.128;8.746;2023-07-31T05:15:20;91825.84;;;19.20;52.03
46778;BME280;32536;47.128;8.746;2023-07-31T05:17:47;91834.75;;;19.20;52.12
46778;BME280;32536;47.128;8.746;2023-07-31T05:20:14;91840.47;;;19.23;52.05
46778;BME280;32536;47.128;8.746;2023-07-31T05:22:41;91843.19;;;19.23;52.27
46778;BME280;32536;47.128;8.746;2023-07-31T05:25:07;91841.69;;;19.22;52.15
46778;BME280;32536;47.128;8.746;2023-07-31T05:27:34;91844.41;;;19.22;52.18
46778;BME280;32536;47.128;8.746;2023-07-31T05:30:01;91839.25;;;19.24;52.24
46778;BME280;32536;47.128;8.746;2023-07-31T05:32:28;91839.25;;;19.24;52.23
46778;BME280;32536;47.128;8.746;2023-07-31T05:34:55;91838.81;;;19.25;52.24
46778;BME280;32536;47.128;8.746;2023-07-31T05:37:22;91832.19;;;19.26;52.31
46778;BME280;32536;47.128;8.746;2023-07-31T05:39:49;91830.66;;;19.25;52.37
46778;BME280;32536;47.128;8.746;2023-07-31T05:42:16;91831.56;;;19.22;52.40
46778;BME280;32536;47.128;8.746;2023-07-31T05:44:43;91831.28;;;19.20;52.39
46778;BME280;32536;47.128;8.746;2023-07-31T05:47:09;91832.91;;;19.17;52.45
46778;BME280;32536;47.128;8.746;2023-07-31T05:49:54;91830.81;;;19.12;52.59
46778;BME280;32536;47.128;8.746;2023-07-31T05:52:21;91829.63;;;19.13;52.60
46778;BME280;32536;47.128;8.746;2023-07-31T05:54:48;91817.72;;;19.11;52.89
46778;BME280;32536;47.128;8.746;2023-07-31T05:57:14;91811.81;;;19.12;52.79
46778;BME280;32536;47.128;8.746;2023-07-31T05:59:41;91823.44;;;19.13;52.80
46778;BME280;32536;47.128;8.746;2023-07-31T06:02:08;91835.34;;;19.15;52.77
46778;BME280;32536;47.128;8.746;2023-07-31T06:04:34;91834.91;;;19.17;52.56
46778;BME280;32536;47.128;8.746;2023-07-31T06:07:01;91830.50;;;19.19;52.43
46778;BME280;32536;47.128;8.746;2023-07-31T06:09:29;91837.91;;;19.19;52.14
46778;BME280;32536;47.128;8.746;2023-07-31T06:11:55;91829.63;;;19.23;52.17
46778;BME280;32536;47.128;8.746;2023-07-31T06:14:22;91823.56;;;19.28;52.09
46778;BME280;32536;47.128;8.746;2023-07-31T06:16:49;91823.88;;;19.30;51.88
46778;BME280;32536;47.128;8.746;2023-07-31T06:19:16;91817.22;;;19.31;51.71
46778;BME280;32536;47.128;8.746;2023-07-31T06:21:43;91817.97;;;19.31;51.68
46778;BME280;32536;47.128;8.746;2023-07-31T06:24:10;91826.88;;;19.32;51.73
46778;BME280;32536;47.128;8.746;2023-07-31T06:26:37;91822.94;;;19.33;51.83
46778;BME280;32536;47.128;8.746;2023-07-31T06:29:04;91816.63;;;19.36;51.91
46778;BME280;32536;47.128;8.746;2023-07-31T06:34:09;91830.63;;;19.34;51.86
46778;BME280;32536;47.128;8.746;2023-07-31T06:36:36;91828.53;;;19.39;51.98
46778;BME280;32536;47.128;8.746;2023-07-31T06:39:03;91835.59;;;19.45;51.99
46778;BME280;32536;47.128;8.746;2023-07-31T06:41:29;91833.34;;;19.53;51.89
46778;BME280;32536;47.128;8.746;2023-07-31T06:43:56;91825.63;;;19.61;51.87
46778;BME280;32536;47.128;8.746;2023-07-31T06:46:23;91812.00;;;19.70;51.91
46778;BME280;32536;47.128;8.746;2023-07-31T06:48:49;91809.72;;;19.78;51.58
46778;BME280;32536;47.128;8.746;2023-07-31T06:51:16;91803.06;;;19.79;51.68
46778;BME280;32536;47.128;8.746;2023-07-31T06:53:43;91804.56;;;19.80;51.76
46778;BME280;32536;47.128;8.746;2023-07-31T06:56:11;91811.38;;;19.84;51.81
46778;BME280;32536;47.128;8.746;2023-07-31T06:58:38;91793.69;;;19.89;51.77
46778;BME280;32536;47.128;8.746;2023-07-31T07:01:04;91804.38;;;19.93;51.82
46778;BME280;32536;47.128;8.746;2023-07-31T07:03:32;91790.16;;;19.98;51.74
46778;BME280;32536;47.128;8.746;2023-07-31T07:05:59;91793.00;;;20.04;51.51
46778;BME280;32536;47.128;8.746;2023-07-31T07:08:25;91798.59;;;20.09;51.55
46778;BME280;32536;47.128;8.746;2023-07-31T07:10:52;91800.84;;;20.11;51.53
46778;BME280;32536;47.128;8.746;2023-07-31T07:13:19;91808.84;;;20.14;51.55
46778;BME280;32536;47.128;8.746;2023-07-31T07:15:50;91805.47;;;20.20;51.61
46778;BME280;32536;47.128;8.746;2023-07-31T07:18:18;91803.94;;;20.28;51.61
46778;BME280;32536;47.128;8.746;2023-07-31T07:20:50;91799.06;;;20.32;51.08
46778;BME280;32536;47.128;8.746;2023-07-31T07:23:18;91793.75;;;20.38;51.92
46778;BME280;32536;47.128;8.746;2023-07-31T07:25:45;91786.63;;;20.40;51.94
46778;BME280;32536;47.128;8.746;2023-07-31T07:28:13;91786.16;;;20.42;51.80
46778;BME280;32536;47.128;8.746;2023-07-31T07:30:40;91775.56;;;20.44;51.82
46778;BME280;32536;47.128;8.746;2023-07-31T07:33:07;91772.66;;;20.47;51.86
46778;BME280;32536;47.128;8.746;2023-07-31T07:35:35;91768.91;;;20.45;51.92
46778;BME280;32536;47.128;8.746;2023-07-31T07:38:04;91753.41;;;20.36;51.83
46778;BME280;32536;47.128;8.746;2023-07-31T07:40:31;91757.50;;;20.31;52.06
46778;BME280;32536;47.128;8.746;2023-07-31T07:42:58;91769.03;;;20.26;52.02
46778;BME280;32536;47.128;8.746;2023-07-31T07:45:26;91766.59;;;20.28;52.23
46778;BME280;32536;47.128;8.746;2023-07-31T07:47:52;91762.94;;;20.31;52.42
46778;BME280;32536;47.128;8.746;2023-07-31T07:50:19;91762.00;;;20.35;52.34
46778;BME280;32536;47.128;8.746;2023-07-31T07:52:46;91764.38;;;20.42;52.50
46778;BME280;32536;47.128;8.746;2023-07-31T07:55:12;91762.81;;;20.50;52.17
46778;BME280;32536;47.128;8.746;2023-07-31T07:57:39;91763.03;;;20.61;51.93
46778;BME280;32536;47.128;8.746;2023-07-31T08:00:06;91761.78;;;20.72;51.71
46778;BME280;32536;47.128;8.746;2023-07-31T08:02:36;91765.19;;;20.82;51.65
46778;BME280;32536;47.128;8.746;2023-07-31T08:05:03;91758.91;;;20.90;51.58
46778;BME280;32536;47.128;8.746;2023-07-31T08:07:29;91763.25;;;20.97;51.42
46778;BME280;32536;47.128;8.746;2023-07-31T08:09:56;91761.38;;;21.03;51.18
46778;BME280;32536;47.128;8.746;2023-07-31T08:12:23;91767.69;;;21.09;50.97
46778;BME280;32536;47.128;8.746;2023-07-31T08:14:50;91770.03;;;21.17;50.83
46778;BME280;32536;47.128;8.746;2023-07-31T08:17:17;91764.59;;;21.17;50.28
46778;BME280;32536;47.128;8.746;2023-07-31T08:19:43;91771.13;;;21.10;50.12
46778;BME280;32536;47.128;8.746;2023-07-31T08:22:11;91767.94;;;21.11;50.47
46778;BME280;32536;47.128;8.746;2023-07-31T08:24:38;91779.59;;;21.12;50.54
46778;BME280;32536;47.128;8.746;2023-07-31T08:27:06;91780.09;;;21.10;50.47
46778;BME280;32536;47.128;8.746;2023-07-31T08:29:33;91773.13;;;21.09;50.01
46778;BME280;32536;47.128;8.746;2023-07-31T08:31:59;91771.91;;;21.10;50.38
46778;BME280;32536;47.128;8.746;2023-07-31T08:34:26;91768.22;;;21.14;50.13
46778;BME280;32536;47.128;8.746;2023-07-31T08:36:53;91775.28;;;21.20;50.14
46778;BME280;32536;47.128;8.746;2023-07-31T08:39:19;91772.66;;;21.26;49.93
46778;BME280;32536;47.128;8.746;2023-07-31T08:41:47;91778.09;;;21.26;49.24
46778;BME280;32536;47.128;8.746;2023-07-31T08:44:15;91777.72;;;21.18;47.91
46778;BME280;32536;47.128;8.746;2023-07-31T08:46:42;91776.97;;;21.18;49.27
46778;BME280;32536;47.128;8.746;2023-07-31T08:49:10;91777.91;;;21.15;48.30
46778;BME280;32536;47.128;8.746;2023-07-31T08:51:37;91773.50;;;21.17;48.89
46778;BME280;32536;47.128;8.746;2023-07-31T08:54:04;91769.94;;;21.26;48.88
46778;BME280;32536;47.128;8.746;2023-07-31T08:56:32;91767.78;;;21.30;48.54
46778;BME280;32536;47.128;8.746;2023-07-31T08:59:02;91767.31;;;21.32;44.88
46778;BME280;32536;47.128;8.746;2023-07-31T09:01:31;91768.63;;;21.36;47.75
46778;BME280;32536;47.128;8.746;2023-07-31T09:04:04;91765.72;;;21.40;47.08
46778;BME280;32536;47.128;8.746;2023-07-31T09:06:31;91756.59;;;21.43;47.39
46778;BME280;32536;47.128;8.746;2023-07-31T09:08:59;91754.34;;;21.41;46.94
46778;BME280;32536;47.128;8.746;2023-07-31T09:11:27;91746.34;;;21.38;47.42
46778;BME280;32536;47.128;8.746;2023-07-31T09:13:57;91746.00;;;21.30;45.25
46778;BME280;32536;47.128;8.746;2023-07-31T09:16:30;91734.16;;;21.18;44.32
46778;BME280;32536;47.128;8.746;2023-07-31T09:18:58;91731.91;;;21.17;47.49
46778;BME280;32536;47.128;8.746;2023-07-31T09:21:27;91733.84;;;21.16;47.27
46778;BME280;32536;47.128;8.746;2023-07-31T09:23:55;91731.72;;;21.20;47.91
46778;BME280;32536;47.128;8.746;2023-07-31T09:26:36;91733.28;;;21.27;47.05
46778;BME280;32536;47.128;8.746;2023-07-31T09:29:07;91727.28;;;21.38;47.37
46778;BME280;32536;47.128;8.746;2023-07-31T09:31:45;91719.28;;;21.49;48.18
46778;BME280;32536;47.128;8.746;2023-07-31T09:34:12;91722.97;;;21.61;48.24
46778;BME280;32536;47.128;8.746;2023-07-31T09:36:49;91717.84;;;21.69;47.69
46778;BME280;32536;47.128;8.746;2023-07-31T09:39:18;91728.94;;;21.80;48.23
46778;BME280;32536;47.128;8.746;2023-07-31T09:41:55;91726.03;;;21.84;47.77
46778;BME280;32536;47.128;8.746;2023-07-31T09:44:37;91715.94;;;21.90;46.63
46778;BME280;32536;47.128;8.746;2023-07-31T09:47:21;91704.91;;;21.99;47.23
46778;BME280;32536;47.128;8.746;2023-07-31T09:50:11;91707.03;;;22.10;48.06
46778;BME280;32536;47.128;8.746;2023-07-31T09:52:38;91694.19;;;22.16;48.36
46778;BME280;32536;47.128;8.746;2023-07-31T09:55:06;91703.97;;;22.23;48.36
46778;BME280;32536;47.128;8.746;2023-07-31T09:57:33;91709.22;;;22.27;48.32
46778;BME280;32536;47.128;8.746;2023-07-31T10:00:02;91699.13;;;22.33;48.38
46778;BME280;32536;47.128;8.746;2023-07-31T10:02:30;91701.94;;;22.38;48.42
46778;BME280;32536;47.128;8.746;2023-07-31T10:05:01;91700.72;;;22.39;48.53
46778;BME280;32536;47.128;8.746;2023-07-31T10:07:30;91705.22;;;22.43;48.42
46778;BME280;32536;47.128;8.746;2023-07-31T10:10:07;91703.16;;;22.37;48.14
46778;BME280;32536;47.128;8.746;2023-07-31T10:12:37;91699.25;;;22.23;48.00
46778;BME280;32536;47.128;8.746;2023-07-31T10:15:04;91700.75;;;22.04;47.98
46778;BME280;32536;47.128;8.746;2023-07-31T10:17:32;91696.56;;;21.88;48.44
46778;BME280;32536;47.128;8.746;2023-07-31T10:20:01;91696.97;;;21.81;48.44
46778;BME280;32536;47.128;8.746;2023-07-31T10:22:31;91691.22;;;21.79;48.54
46778;BME280;32536;47.128;8.746;2023-07-31T10:24:59;91688.91;;;21.71;48.35
46778;BME280;32536;47.128;8.746;2023-07-31T10:27:26;91689.31;;;21.64;48.66
46778;BME280;32536;47.128;8.746;2023-07-31T10:29:55;91679.34;;;21.61;48.44
46778;BME280;32536;47.128;8.746;2023-07-31T10:32:23;91682.91;;;21.52;48.53
46778;BME280;32536;47.128;8.746;2023-07-31T10:34:51;91668.25;;;21.50;48.84
46778;BME280;32536;47.128;8.746;2023-07-31T10:40:04;91672.75;;;21.53;48.47
46778;BME280;32536;47.128;8.746;2023-07-31T10:42:50;91670.13;;;21.58;48.16
46778;BME280;32536;47.128;8.746;2023-07-31T10:48:05;91658.31;;;21.82;48.71
46778;BME280;32536;47.128;8.746;2023-07-31T10:50:38;91667.13;;;21.92;48.04
46778;BME280;32536;47.128;8.746;2023-07-31T10:53:23;91662.28;;;22.02;47.97
46778;BME280;32536;47.128;8.746;2023-07-31T10:55:58;91653.22;;;22.11;48.37
46778;BME280;32536;47.128;8.746;2023-07-31T10:58:26;91661.75;;;22.18;48.18
46778;BME280;32536;47.128;8.746;2023-07-31T11:00:57;91652.59;;;22.21;48.15
46778;BME280;32536;47.128;8.746;2023-07-31T11:03:29;91652.34;;;22.19;48.29
46778;BME280;32536;47.128;8.746;2023-07-31T11:06:11;91651.53;;;22.13;48.34
46778;BME280;32536;47.128;8.746;2023-07-31T11:08:43;91651.78;;;22.15;48.15
46778;BME280;32536;47.128;8.746;2023-07-31T11:11:15;91649.84;;;22.21;48.25
46778;BME280;32536;47.128;8.746;2023-07-31T11:13:53;91642.03;;;22.29;48.32
46778;BME280;32536;47.128;8.746;2023-07-31T11:16:22;91645.50;;;22.30;48.27
46778;BME280;32536;47.128;8.746;2023-07-31T11:18:51;91635.38;;;22.36;48.47
46778;BME280;32536;47.128;8.746;2023-07-31T11:21:21;91619.78;;;22.36;48.32
46778;BME280;32536;47.128;8.746;2023-07-31T11:23:50;91624.28;;;22.39;48.33
46778;BME280;32536;47.128;8.746;2023-07-31T11:26:23;91615.06;;;22.37;48.14
46778;BME280;32536;47.128;8.746;2023-07-31T11:28:51;91612.91;;;22.41;48.30
46778;BME280;32536;47.128;8.746;2023-07-31T11:31:24;91609.94;;;22.45;48.49
46778;BME280;32536;47.128;8.746;2023-07-31T11:33:50;91607.72;;;22.43;48.37
46778;BME280;32536;47.128;8.746;2023-07-31T11:36:29;91599.78;;;22.45;48.07
46778;BME280;32536;47.128;8.746;2023-07-31T11:39:04;91596.09;;;22.48;45.81
46778;BME280;32536;47.128;8.746;2023-07-31T11:41:32;91597.66;;;22.55;47.81
46778;BME280;32536;47.128;8.746;2023-07-31T11:44:00;91606.66;;;22.61;47.87
46778;BME280;32536;47.128;8.746;2023-07-31T11:46:26;91605.00;;;22.69;48.04
46778;BME280;32536;47.128;8.746;2023-07-31T11:49:00;91597.09;;;22.77;47.59
46778;BME280;32536;47.128;8.746;2023-07-31T11:51:27;91586.19;;;22.77;47.61
46778;BME280;32536;47.128;8.746;2023-07-31T11:53:58;91594.16;;;22.81;47.75
46778;BME280;32536;47.128;8.746;2023-07-31T11:56:27;91590.25;;;22.88;47.86
46778;BME280;32536;47.128;8.746;2023-07-31T11:58:59;91595.50;;;22.91;47.66
46778;BME280;32536;47.128;8.746;2023-07-31T12:01:28;91590.84;;;22.97;47.92
46778;BME280;32536;47.128;8.746;2023-07-31T12:03:56;91599.06;;;23.03;47.87
46778;BME280;32536;47.128;8.746;2023-07-31T12:06:33;91595.59;;;23.08;47.16
46778;BME280;32536;47.128;8.746;2023-07-31T12:09:04;91591.69;;;23.15;47.70
46778;BME280;32536;47.128;8.746;2023-07-31T12:11:31;91588.78;;;23.18;47.35
46778;BME280;32536;47.128;8.746;2023-07-31T12:14:26;91586.22;;;23.15;47.36
46778;BME280;32536;47.128;8.746;2023-07-31T12:16:58;91584.53;;;23.17;47.71
46778;BME280;32536;47.128;8.746;2023-07-31T12:19:26;91585.06;;;23.22;47.49
46778;BME280;32536;47.128;8.746;2023-07-31T12:21:56;91582.13;;;23.31;47.66
46778;BME280;32536;47.128;8.746;2023-07-31T12:24:22;91580.97;;;23.38;47.72
46778;BME280;32536;47.128;8.746;2023-07-31T12:26:49;91577.53;;;23.48;47.63
46778;BME280;32536;47.128;8.746;2023-07-31T12:29:17;91569.63;;;23.56;47.06
46778;BME280;32536;47.128;8.746;2023-07-31T12:31:44;91569.63;;;23.62;46.50
46778;BME280;32536;47.128;8.746;2023-07-31T12:34:18;91567.94;;;23.70;46.47
46778;BME280;32536;47.128;8.746;2023-07-31T12:36:46;91573.72;;;23.83;47.02
46778;BME280;32536;47.128;8.746;2023-07-31T12:39:14;91577.78;;;23.94;47.01
46778;BME280;32536;47.128;8.746;2023-07-31T12:41:41;91563.13;;;24.03;46.97
46778;BME280;32536;47.128;8.746;2023-07-31T12:44:08;91559.94;;;24.10;46.87
46778;BME280;32536;47.128;8.746;2023-07-31T12:46:35;91565.63;;;24.12;45.92
46778;BME280;32536;47.128;8.746;2023-07-31T12:49:02;91562.44;;;24.19;46.43
46778;BME280;32536;47.128;8.746;2023-07-31T12:55:07;91561.75;;;24.41;46.52
46778;BME280;32536;47.128;8.746;2023-07-31T12:57:36;91555.53;;;24.46;46.42
46778;BME280;32536;47.128;8.746;2023-07-31T13:00:03;91557.53;;;24.52;46.54
46778;BME280;32536;47.128;8.746;2023-07-31T13:02:31;91546.81;;;24.59;46.58
46778;BME280;32536;47.128;8.746;2023-07-31T13:04:57;91549.88;;;24.67;46.28
46778;BME280;32536;47.128;8.746;2023-07-31T13:07:24;91547.88;;;24.68;45.14
46778;BME280;32536;47.128;8.746;2023-07-31T13:09:51;91549.09;;;24.67;44.53
46778;BME280;32536;47.128;8.746;2023-07-31T13:12:18;91549.31;;;24.63;44.44
46778;BME280;32536;47.128;8.746;2023-07-31T13:14:44;91548.59;;;24.62;44.48
46778;BME280;32536;47.128;8.746;2023-07-31T13:17:11;91549.09;;;24.67;44.69
46778;BME280;32536;47.128;8.746;2023-07-31T13:19:38;91542.13;;;24.71;44.63
46778;BME280;32536;47.128;8.746;2023-07-31T13:22:04;91543.38;;;24.76;44.51
46778;BME280;32536;47.128;8.746;2023-07-31T13:24:31;91540.91;;;24.84;44.15